createdAt,value
2019-04-29T00:02:15.009Z,6.60
2019-04-29T00:04:44.343Z,6.55
2019-04-29T00:07:13.746Z,6.54
2019-04-29T00:09:43.075Z,6.52
2019-04-29T00:12:12.938Z,6.53
2019-04-29T00:14:43.985Z,6.53
2019-04-29T00:17:14.961Z,6.50
2019-04-29T00:19:57.753Z,6.47
2019-04-29T00:22:27.070Z,6.42
2019-04-29T00:24:56.641Z,6.39
2019-04-29T00:27:25.967Z,6.35
2019-04-29T00:29:56.681Z,6.35
2019-04-29T00:32:26.077Z,6.30
2019-04-29T00:34:55.416Z,6.26
2019-04-29T00:37:41.689Z,6.29
2019-04-29T00:40:31.217Z,6.28
2019-04-29T00:43:02.173Z,6.26
2019-04-29T00:45:31.525Z,6.22
2019-04-29T00:48:00.847Z,6.23
2019-04-29T00:50:30.188Z,6.28
2019-04-29T00:52:59.503Z,6.27
2019-04-29T00:55:32.929Z,6.26
2019-04-29T00:58:02.320Z,6.26
2019-04-29T01:00:35.935Z,6.23
2019-04-29T01:03:05.561Z,6.18
2019-04-29T01:05:35.262Z,6.14
2019-04-29T01:08:04.922Z,6.11
2019-04-29T01:10:34.327Z,6.07
2019-04-29T01:13:03.729Z,6.05
2019-04-29T01:15:33.138Z,6.01
2019-04-29T01:18:02.776Z,5.98
2019-04-29T01:20:32.294Z,5.95
2019-04-29T01:23:01.614Z,5.93
2019-04-29T01:25:30.947Z,5.88
2019-04-29T01:28:18.144Z,5.88
2019-04-29T01:30:50.540Z,5.87
2019-04-29T01:33:19.867Z,5.84
2019-04-29T01:35:50.861Z,5.85
2019-04-29T01:38:20.210Z,5.84
2019-04-29T01:41:02.991Z,5.80
2019-04-29T01:43:50.761Z,5.77
2019-04-29T01:46:20.110Z,5.78
2019-04-29T01:48:49.454Z,5.74
2019-04-29T01:51:18.781Z,5.72
2019-04-29T01:53:48.104Z,5.71
2019-04-29T01:56:17.435Z,5.67
2019-04-29T01:58:46.772Z,5.66
2019-04-29T02:01:16.176Z,5.63
2019-04-29T02:03:45.525Z,5.62
2019-04-29T02:06:14.861Z,5.58
2019-04-29T02:08:44.198Z,5.55
2019-04-29T02:11:13.525Z,5.53
2019-04-29T02:13:42.854Z,5.52
2019-04-29T02:16:12.178Z,5.49
2019-04-29T02:18:41.516Z,5.48
2019-04-29T02:21:11.314Z,5.46
2019-04-29T02:23:57.296Z,5.48
2019-04-29T02:26:26.624Z,5.43
2019-04-29T02:28:55.960Z,5.42
2019-04-29T02:31:42.373Z,5.39
2019-04-29T02:34:11.711Z,5.37
2019-04-29T02:36:41.995Z,5.35
2019-04-29T02:39:31.198Z,5.36
2019-04-29T02:42:18.277Z,5.31
2019-04-29T02:44:47.997Z,5.29
2019-04-29T02:47:17.310Z,5.27
2019-04-29T02:49:46.650Z,5.24
2019-04-29T02:52:15.974Z,5.22
2019-04-29T02:54:45.900Z,5.20
2019-04-29T02:57:31.874Z,5.16
2019-04-29T03:00:03.123Z,5.15
2019-04-29T03:02:35.983Z,5.14
2019-04-29T03:05:09.994Z,5.12
2019-04-29T03:07:41.055Z,5.10
2019-04-29T03:10:10.931Z,5.08
2019-04-29T03:12:40.655Z,5.06
2019-04-29T03:15:10.526Z,5.06
2019-04-29T03:17:39.859Z,5.05
2019-04-29T03:20:26.148Z,5.02
2019-04-29T03:23:09.413Z,5.03
2019-04-29T03:25:38.922Z,5.02
2019-04-29T03:28:08.268Z,4.99
2019-04-29T03:30:37.612Z,4.96
2019-04-29T03:33:07.018Z,4.96
2019-04-29T03:35:36.361Z,4.98
2019-04-29T03:38:05.690Z,4.96
2019-04-29T03:40:35.331Z,4.98
2019-04-29T03:43:04.745Z,5.02
2019-04-29T03:45:34.345Z,5.06
2019-04-29T03:48:03.812Z,5.05
2019-04-29T03:50:34.486Z,5.04
2019-04-29T03:53:03.843Z,5.03
2019-04-29T03:55:39.614Z,5.01
2019-04-29T03:58:04.299Z,5.00
2019-04-29T04:00:34.025Z,4.98
2019-04-29T04:03:10.919Z,4.98
2019-04-29T04:05:44.914Z,4.98
2019-04-29T04:08:15.905Z,4.94
2019-04-29T04:10:45.253Z,4.96
2019-04-29T04:13:14.598Z,4.94
2019-04-29T04:15:43.965Z,4.93
2019-04-29T04:18:24.028Z,4.91
2019-04-29T04:20:53.376Z,4.88
2019-04-29T04:23:22.709Z,4.90
2019-04-29T04:25:53.293Z,4.92
2019-04-29T04:28:22.634Z,4.93
2019-04-29T04:30:51.971Z,4.92
2019-04-29T04:33:21.310Z,4.93
2019-04-29T04:35:50.648Z,4.97
2019-04-29T04:38:19.982Z,5.01
2019-04-29T04:41:00.059Z,5.03
2019-04-29T04:43:29.393Z,5.08
2019-04-29T04:45:58.744Z,5.10
2019-04-29T04:48:28.088Z,5.13
2019-04-29T04:50:57.433Z,5.17
2019-04-29T04:53:26.765Z,5.21
2019-04-29T04:55:57.745Z,5.24
2019-04-29T04:58:27.081Z,5.28
2019-04-29T05:00:56.430Z,5.31
2019-04-29T05:03:25.765Z,5.39
2019-04-29T05:05:55.506Z,5.39
2019-04-29T05:08:24.839Z,5.41
2019-04-29T05:10:54.184Z,5.43
2019-04-29T05:13:28.221Z,5.44
2019-04-29T05:15:54.569Z,5.45
2019-04-29T05:18:23.899Z,5.48
2019-04-29T05:20:53.229Z,5.53
2019-04-29T05:23:22.633Z,5.60
2019-04-29T05:25:51.931Z,5.63
2019-04-29T05:28:21.268Z,5.68
2019-04-29T05:30:50.612Z,5.73
2019-04-29T05:33:19.947Z,5.77
2019-04-29T05:35:51.220Z,5.82
2019-04-29T05:38:28.585Z,5.85
2019-04-29T05:40:57.918Z,5.89
2019-04-29T05:43:32.125Z,5.95
2019-04-29T05:46:21.735Z,5.98
2019-04-29T05:48:51.101Z,6.02
2019-04-29T05:51:34.036Z,6.10
2019-04-29T05:54:09.227Z,6.19
2019-04-29T05:56:38.566Z,6.27
2019-04-29T05:59:08.447Z,6.33
2019-04-29T06:01:42.596Z,6.40
2019-04-29T06:04:11.670Z,6.51
2019-04-29T06:06:41.828Z,6.59
2019-04-29T06:09:11.485Z,6.63
2019-04-29T06:11:42.178Z,6.67
2019-04-29T06:14:11.518Z,6.73
2019-04-29T06:16:40.856Z,6.81
2019-04-29T06:19:10.268Z,6.93
2019-04-29T06:21:39.615Z,7.04
2019-04-29T06:24:08.978Z,7.14
2019-04-29T06:26:38.587Z,7.19
2019-04-29T06:29:07.927Z,7.32
2019-04-29T06:31:37.258Z,7.38
2019-04-29T06:34:06.694Z,7.46
2019-04-29T06:36:36.074Z,7.51
2019-04-29T06:39:06.826Z,7.58
2019-04-29T06:41:36.162Z,7.66
2019-04-29T06:44:10.202Z,7.76
2019-04-29T06:46:36.532Z,7.84
2019-04-29T06:49:10.626Z,7.92
2019-04-29T06:51:37.966Z,7.99
2019-04-29T06:54:07.289Z,8.05
2019-04-29T06:56:36.644Z,8.14
2019-04-29T06:59:07.559Z,8.18
2019-04-29T07:01:38.596Z,8.19
2019-04-29T07:04:09.179Z,8.28
2019-04-29T07:06:38.518Z,8.34
2019-04-29T07:09:08.178Z,8.45
2019-04-29T07:11:38.467Z,8.51
2019-04-29T07:14:08.003Z,8.59
2019-04-29T07:16:37.619Z,8.76
2019-04-29T07:19:07.225Z,8.80
2019-04-29T07:21:36.568Z,8.88
2019-04-29T07:24:05.906Z,8.98
2019-04-29T07:26:35.485Z,9.04
2019-04-29T07:29:05.138Z,9.21
2019-04-29T07:31:35.172Z,9.25
2019-04-29T07:34:04.579Z,9.28
2019-04-29T07:36:33.922Z,9.40
2019-04-29T07:39:05.137Z,9.45
2019-04-29T07:41:34.655Z,9.50
2019-04-29T07:44:04.070Z,9.58
2019-04-29T07:46:55.519Z,9.63
2019-04-29T07:49:12.704Z,9.78
2019-04-29T07:51:40.803Z,9.84
2019-04-29T07:54:11.200Z,9.99
2019-04-29T07:56:42.466Z,9.99
2019-04-29T07:59:12.550Z,10.10
2019-04-29T08:01:41.916Z,10.13
2019-04-29T08:04:11.254Z,10.19
2019-04-29T08:06:43.021Z,10.27
2019-04-29T08:09:12.195Z,10.32
2019-04-29T08:11:41.877Z,10.38
2019-04-29T08:14:12.456Z,10.42
2019-04-29T08:16:41.792Z,10.54
2019-04-29T08:19:11.152Z,10.63
2019-04-29T08:21:40.480Z,10.65
2019-04-29T08:24:11.654Z,10.70
2019-04-29T08:26:47.039Z,10.79
2019-04-29T08:29:11.907Z,10.83
2019-04-29T08:31:41.241Z,10.88
2019-04-29T08:34:10.590Z,10.94
2019-04-29T08:36:39.931Z,11.01
2019-04-29T08:39:09.351Z,11.06
2019-04-29T08:41:38.966Z,11.16
2019-04-29T08:44:18.795Z,11.24
2019-04-29T08:46:51.648Z,11.32
2019-04-29T08:49:20.817Z,11.75
2019-04-29T08:51:50.163Z,11.66
2019-04-29T08:54:20.165Z,11.71
2019-04-29T08:57:02.285Z,11.75
2019-04-29T08:59:24.589Z,11.80
2019-04-29T09:01:52.848Z,11.87
2019-04-29T09:04:22.164Z,11.89
2019-04-29T09:06:52.879Z,12.02
2019-04-29T09:09:29.141Z,12.10
2019-04-29T09:11:53.270Z,12.25
2019-04-29T09:14:22.608Z,12.36
2019-04-29T09:16:51.954Z,12.37
2019-04-29T09:19:21.295Z,12.42
2019-04-29T09:21:58.332Z,12.51
2019-04-29T09:24:28.979Z,12.52
2019-04-29T09:27:15.036Z,12.57
2019-04-29T09:29:46.390Z,12.60
2019-04-29T09:32:15.631Z,12.65
2019-04-29T09:34:44.985Z,12.68
2019-04-29T09:37:14.332Z,12.73
2019-04-29T09:39:45.326Z,12.80
2019-04-29T09:42:35.108Z,12.87
2019-04-29T09:45:07.646Z,13.01
2019-04-29T09:47:36.978Z,13.09
2019-04-29T09:50:07.972Z,13.17
2019-04-29T09:52:37.375Z,13.31
2019-04-29T09:55:06.957Z,13.47
2019-04-29T09:57:36.305Z,13.57
2019-04-29T10:00:10.743Z,13.68
2019-04-29T10:03:02.936Z,13.75
2019-04-29T10:05:34.347Z,13.81
2019-04-29T10:08:05.298Z,13.91
2019-04-29T10:10:37.215Z,14.18
2019-04-29T10:13:06.123Z,14.26
2019-04-29T10:15:45.895Z,14.42
2019-04-29T10:18:16.939Z,14.49
2019-04-29T10:20:53.659Z,14.47
2019-04-29T10:23:23.076Z,14.47
2019-04-29T10:25:52.490Z,14.47
2019-04-29T10:28:21.979Z,14.38
2019-04-29T10:30:51.319Z,14.40
2019-04-29T10:33:23.032Z,14.46
2019-04-29T10:35:52.770Z,14.49
2019-04-29T10:38:22.103Z,14.63
2019-04-29T10:41:00.682Z,14.84
2019-04-29T10:43:31.462Z,14.93
2019-04-29T10:46:18.640Z,14.93
2019-04-29T10:48:49.608Z,15.03
2019-04-29T10:51:23.333Z,15.16
2019-04-29T10:53:52.726Z,15.27
2019-04-29T10:56:22.620Z,15.32
2019-04-29T10:58:52.231Z,15.43
2019-04-29T11:01:40.982Z,15.57
2019-04-29T11:04:10.320Z,15.67
2019-04-29T11:06:39.746Z,15.73
2019-04-29T11:09:14.461Z,15.72
2019-04-29T11:11:45.800Z,15.76
2019-04-29T11:14:15.140Z,15.62
2019-04-29T11:16:46.878Z,15.74
2019-04-29T11:19:15.638Z,15.96
2019-04-29T11:21:45.044Z,16.20
2019-04-29T11:24:16.028Z,16.59
2019-04-29T11:26:49.983Z,17.04
2019-04-29T11:29:22.251Z,17.38
2019-04-29T11:31:54.020Z,17.60
2019-04-29T11:34:28.370Z,17.86
2019-04-29T11:36:57.773Z,18.27
2019-04-29T11:39:27.106Z,18.83
2019-04-29T11:42:00.060Z,19.37
2019-04-29T11:44:28.041Z,19.89
2019-04-29T11:46:57.533Z,20.44
2019-04-29T11:49:28.511Z,20.86
2019-04-29T11:52:09.120Z,21.29
2019-04-29T11:54:28.883Z,21.81
2019-04-29T11:56:58.771Z,22.19
2019-04-29T11:59:45.949Z,22.30
2019-04-29T12:02:16.928Z,22.26
2019-04-29T12:04:56.649Z,22.00
2019-04-29T12:07:32.120Z,22.09
2019-04-29T12:09:57.712Z,22.12
2019-04-29T12:12:27.129Z,22.16
2019-04-29T12:15:15.460Z,21.99
2019-04-29T12:17:49.419Z,21.86
2019-04-29T12:20:25.869Z,21.89
2019-04-29T12:22:55.210Z,22.07
2019-04-29T12:25:27.493Z,22.37
2019-04-29T12:28:01.586Z,22.53
2019-04-29T12:30:29.805Z,22.36
2019-04-29T12:33:02.837Z,22.36
2019-04-29T12:35:33.830Z,22.34
2019-04-29T12:38:23.273Z,21.98
2019-04-29T12:40:55.103Z,22.10
2019-04-29T12:43:36.161Z,22.13
2019-04-29T12:46:12.950Z,22.12
2019-04-29T12:48:42.248Z,22.22
2019-04-29T12:51:11.654Z,22.43
2019-04-29T12:53:40.989Z,22.74
2019-04-29T12:56:11.270Z,23.04
2019-04-29T12:58:40.945Z,23.42
2019-04-29T13:01:17.870Z,23.55
2019-04-29T13:03:54.863Z,23.46
2019-04-29T13:06:39.189Z,23.50
2019-04-29T13:09:17.635Z,23.48
2019-04-29T13:11:48.250Z,23.57
2019-04-29T13:14:10.365Z,23.77
2019-04-29T13:16:55.318Z,23.99
2019-04-29T13:19:29.796Z,23.98
2019-04-29T13:21:56.806Z,24.17
2019-04-29T13:24:26.783Z,24.39
2019-04-29T13:26:56.275Z,24.52
2019-04-29T13:29:27.810Z,24.48
2019-04-29T13:31:56.644Z,24.37
2019-04-29T13:34:31.036Z,24.64
2019-04-29T13:37:07.161Z,24.89
2019-04-29T13:39:39.211Z,24.96
2019-04-29T13:42:02.978Z,25.07
2019-04-29T13:44:32.338Z,25.30
2019-04-29T13:47:09.257Z,25.58
2019-04-29T13:49:40.252Z,25.78
2019-04-29T13:52:09.994Z,26.06
2019-04-29T13:54:42.351Z,26.15
2019-04-29T13:57:15.615Z,26.08
2019-04-29T13:59:59.706Z,26.13
2019-04-29T14:02:36.256Z,26.06
2019-04-29T14:05:06.040Z,26.20
2019-04-29T14:07:35.370Z,25.95
2019-04-29T14:10:10.112Z,25.53
2019-04-29T14:15:09.257Z,24.83
2019-04-29T14:17:38.754Z,24.73
2019-04-29T14:18:53.484Z,25.35
2019-04-29T14:20:10.672Z,24.46
2019-04-29T14:22:39.419Z,24.16
2019-04-29T14:25:08.886Z,24.08
2019-04-29T14:27:38.450Z,23.86
2019-04-29T14:30:12.457Z,23.46
2019-04-29T14:32:42.339Z,23.05
2019-04-29T14:35:29.614Z,22.87
2019-04-29T14:38:04.317Z,22.68
2019-04-29T14:40:30.584Z,22.30
2019-04-29T14:43:26.281Z,22.12
2019-04-29T14:45:50.377Z,21.79
2019-04-29T14:48:21.350Z,21.68
2019-04-29T14:50:54.134Z,21.39
2019-04-29T14:53:24.220Z,21.07
2019-04-29T14:55:52.829Z,20.91
2019-04-29T14:58:22.159Z,20.53
2019-04-29T15:00:53.228Z,20.27
2019-04-29T15:03:24.231Z,20.32
2019-04-29T15:05:53.616Z,20.29
2019-04-29T15:08:23.003Z,20.18
2019-04-29T15:10:53.696Z,20.05
2019-04-29T15:13:24.686Z,19.89
2019-04-29T15:16:04.726Z,19.78
2019-04-29T15:18:47.727Z,19.69
2019-04-29T15:21:12.708Z,19.59
2019-04-29T15:23:42.035Z,19.47
2019-04-29T15:26:11.377Z,19.39
2019-04-29T15:28:52.542Z,19.24
2019-04-29T15:31:23.619Z,19.09
2019-04-29T15:33:53.040Z,18.99
2019-04-29T15:36:22.624Z,18.82
2019-04-29T15:39:07.922Z,18.62
2019-04-29T15:41:29.637Z,18.58
2019-04-29T15:44:06.593Z,18.56
2019-04-29T15:46:25.595Z,18.44
2019-04-29T15:48:55.158Z,18.38
2019-04-29T15:51:24.495Z,18.40
2019-04-29T15:53:54.509Z,18.27
2019-04-29T15:56:28.940Z,18.21
2019-04-29T15:58:59.692Z,18.07
2019-04-29T16:01:28.423Z,17.91
2019-04-29T16:03:58.690Z,17.91
2019-04-29T16:06:40.194Z,17.69
2019-04-29T16:09:09.075Z,17.60
2019-04-29T16:11:46.977Z,17.53
2019-04-29T16:14:18.041Z,17.41
2019-04-29T16:16:47.373Z,17.37
2019-04-29T16:19:16.704Z,17.33
2019-04-29T16:21:46.282Z,17.27
2019-04-29T16:24:26.282Z,17.08
2019-04-29T16:26:53.307Z,17.06
2019-04-29T16:29:17.897Z,17.03
2019-04-29T16:31:47.236Z,16.99
2019-04-29T16:34:16.572Z,16.95
2019-04-29T16:36:49.684Z,16.82
2019-04-29T16:39:16.920Z,16.77
2019-04-29T16:41:50.955Z,16.66
2019-04-29T16:44:34.630Z,16.62
2019-04-29T16:46:52.598Z,16.59
2019-04-29T16:49:22.015Z,16.50
2019-04-29T16:51:53.438Z,16.48
2019-04-29T16:54:28.195Z,16.47
2019-04-29T16:56:53.761Z,16.42
2019-04-29T16:59:23.102Z,16.41
2019-04-29T17:01:52.777Z,16.39
2019-04-29T17:04:23.071Z,16.35
2019-04-29T17:07:11.177Z,16.22
2019-04-29T17:09:27.493Z,16.12
2019-04-29T17:11:58.432Z,16.10
2019-04-29T17:14:28.126Z,16.06
2019-04-29T17:16:57.854Z,16.04
2019-04-29T17:19:27.270Z,15.96
2019-04-29T17:22:23.669Z,15.93
2019-04-29T17:24:27.938Z,15.88
2019-04-29T17:27:05.010Z,15.82
2019-04-29T17:29:48.621Z,15.72
2019-04-29T17:32:15.745Z,15.64
2019-04-29T17:34:59.018Z,15.62
2019-04-29T17:37:18.526Z,15.60
2019-04-29T17:39:47.855Z,15.52
2019-04-29T17:42:18.150Z,15.43
2019-04-29T17:44:47.496Z,15.37
2019-04-29T17:47:34.567Z,15.36
2019-04-29T17:50:13.588Z,15.31
2019-04-29T17:52:43.248Z,15.27
2019-04-29T17:55:15.211Z,15.19
2019-04-29T17:57:58.180Z,15.08
2019-04-29T18:00:41.117Z,15.01
2019-04-29T18:03:18.320Z,14.99
2019-04-29T18:05:57.597Z,14.97
2019-04-29T18:08:30.556Z,14.89
2019-04-29T18:11:04.688Z,14.80
2019-04-29T18:13:32.938Z,14.72
2019-04-29T18:16:04.766Z,14.72
2019-04-29T18:18:46.606Z,14.72
2019-04-29T18:21:19.597Z,14.62
2019-04-29T18:24:02.235Z,14.58
2019-04-29T18:26:52.702Z,14.57
2019-04-29T18:29:21.777Z,14.58
2019-04-29T18:31:51.115Z,14.53
2019-04-29T18:34:20.450Z,14.50
2019-04-29T18:36:49.783Z,14.50
2019-04-29T18:39:24.974Z,14.47
2019-04-29T18:41:54.786Z,14.41
2019-04-29T18:44:25.398Z,14.37
2019-04-29T18:46:57.167Z,14.35
2019-04-29T18:49:26.140Z,14.26
2019-04-29T18:51:57.890Z,14.24
2019-04-29T18:54:27.470Z,14.18
2019-04-29T18:56:57.046Z,14.15
2019-04-29T18:59:33.432Z,14.11
2019-04-29T19:02:00.955Z,14.06
2019-04-29T19:04:48.506Z,13.99
2019-04-29T19:07:15.906Z,14.01
2019-04-29T19:09:47.214Z,13.93
2019-04-29T19:12:17.508Z,13.80
2019-04-29T19:14:47.838Z,13.73
2019-04-29T19:17:17.258Z,13.71
2019-04-29T19:19:46.603Z,13.72
2019-04-29T19:22:15.938Z,13.68
2019-04-29T19:24:47.986Z,13.64
2019-04-29T19:27:16.348Z,13.60
2019-04-29T19:29:45.736Z,13.56
2019-04-29T19:32:18.874Z,13.45
2019-04-29T19:34:50.163Z,13.42
2019-04-29T19:37:17.147Z,13.44
2019-04-29T19:39:46.474Z,13.41
2019-04-29T19:42:28.656Z,13.37
2019-04-29T19:44:47.089Z,13.35
2019-04-29T19:47:16.750Z,13.28
2019-04-29T19:49:46.064Z,13.23
2019-04-29T19:52:26.495Z,13.19
2019-04-29T19:54:47.409Z,13.15
2019-04-29T19:57:17.832Z,13.02
2019-04-29T19:59:51.444Z,13.05
2019-04-29T20:02:19.375Z,12.99
2019-04-29T20:04:56.001Z,12.99
2019-04-29T20:07:26.751Z,12.98
2019-04-29T20:10:03.904Z,12.96
2019-04-29T20:12:26.784Z,12.95
2019-04-29T20:14:59.771Z,12.92
2019-04-29T20:17:36.870Z,12.89
2019-04-29T20:20:09.507Z,12.86
2019-04-29T20:22:43.391Z,12.86
2019-04-29T20:25:10.097Z,12.82
2019-04-29T20:27:39.670Z,12.79
2019-04-29T20:30:16.524Z,12.76
2019-04-29T20:32:40.443Z,12.72
2019-04-29T20:35:10.214Z,12.68
2019-04-29T20:37:39.821Z,12.70
2019-04-29T20:40:09.701Z,12.68
2019-04-29T20:42:40.447Z,12.58
2019-04-29T20:45:10.495Z,12.57
2019-04-29T20:47:42.039Z,12.53
2019-04-29T20:50:13.713Z,12.51
2019-04-29T20:52:52.129Z,12.49
2019-04-29T20:55:21.305Z,12.42
2019-04-29T20:57:52.506Z,12.35
2019-04-29T21:00:25.093Z,12.30
2019-04-29T21:02:53.455Z,12.33
2019-04-29T21:05:24.674Z,12.29
2019-04-29T21:08:02.966Z,12.20
2019-04-29T21:10:26.445Z,12.12
2019-04-29T21:13:16.238Z,12.09
2019-04-29T21:16:01.622Z,12.07
2019-04-29T21:18:30.954Z,12.06
2019-04-29T21:21:04.493Z,12.03
2019-04-29T21:23:35.297Z,11.96
2019-04-29T21:26:05.344Z,11.91
2019-04-29T21:28:38.147Z,11.79
2019-04-29T21:31:05.258Z,11.84
2019-04-29T21:33:35.532Z,11.85
2019-04-29T21:36:09.613Z,11.86
2019-04-29T21:39:01.919Z,11.86
2019-04-29T21:41:32.443Z,11.85
2019-04-29T21:44:03.452Z,11.87
2019-04-29T21:46:33.103Z,11.78
2019-04-29T21:49:06.834Z,11.81
2019-04-29T21:51:35.486Z,11.77
2019-04-29T21:54:09.686Z,11.79
2019-04-29T21:56:39.700Z,11.78
2019-04-29T21:59:12.004Z,11.74
2019-04-29T22:01:39.378Z,11.68
2019-04-29T22:04:08.892Z,11.70
2019-04-29T22:06:38.240Z,11.72
2019-04-29T22:09:08.452Z,11.72
2019-04-29T22:11:43.583Z,11.71
2019-04-29T22:14:14.190Z,11.72
2019-04-29T22:16:41.202Z,11.72
2019-04-29T22:19:10.546Z,11.68
2019-04-29T22:21:39.895Z,11.69
2019-04-29T22:24:09.229Z,11.67
2019-04-29T22:26:38.905Z,11.68
2019-04-29T22:29:08.259Z,11.66
2019-04-29T22:31:38.373Z,11.66
2019-04-29T22:34:10.031Z,11.64
2019-04-29T22:36:38.883Z,11.61
2019-04-29T22:39:08.446Z,11.53
2019-04-29T22:41:55.508Z,11.55
2019-04-29T22:44:26.128Z,11.57
2019-04-29T22:46:55.704Z,11.54
2019-04-29T22:49:29.199Z,11.53
2019-04-29T22:51:57.223Z,11.55
2019-04-29T22:54:26.718Z,11.55
2019-04-29T22:56:56.788Z,11.48
2019-04-29T22:59:27.778Z,11.50
2019-04-29T23:01:57.119Z,11.51
2019-04-29T23:04:26.491Z,11.49
2019-04-29T23:06:55.819Z,11.48
2019-04-29T23:09:25.154Z,11.45
2019-04-29T23:11:55.674Z,11.42
2019-04-29T23:14:25.319Z,11.41
2019-04-29T23:16:55.595Z,11.41
2019-04-29T23:19:25.946Z,11.42
2019-04-29T23:21:59.804Z,11.37
2019-04-29T23:24:46.645Z,11.40
2019-04-29T23:27:19.510Z,11.41
2019-04-29T23:29:47.145Z,11.42
2019-04-29T23:32:16.479Z,11.40
2019-04-29T23:34:45.820Z,11.38
2019-04-29T23:37:15.575Z,11.36
2019-04-29T23:39:45.724Z,11.29
2019-04-29T23:42:16.297Z,11.27
2019-04-29T23:44:45.763Z,11.23
2019-04-29T23:47:15.821Z,11.19
2019-04-29T23:49:46.867Z,11.20
2019-04-29T23:52:17.888Z,11.19
2019-04-29T23:54:48.630Z,11.17
2019-04-29T23:57:23.612Z,11.18
